Time;durP1;ratioP1;P1;durP2;ratioP2;P2;SDS_P1;SDS_P2;PMS_P1;PMS_P2;Temp;Humidity;BMP_temperature;BMP_pressure;BME280_temperature;BME280_humidity;BME280_pressure;Samples;Min_cycle;Max_cycle;Signal;HPM_P1;HPM_P2
2023/06/15 00:11:25;;;;;;;9.80;7.50;;;;;;;12.85;84.96;98652.63;435237;1254;110409;-41
2023/06/15 00:21:33;;;;;;;13.20;9.10;;;;;;;12.92;85.13;98652.44;435406;1253;107680;-42
2023/06/15 00:31:41;;;;;;;12.80;8.10;;;;;;;12.90;85.01;98652.73;435344;1254;97880;-41
2023/06/15 00:41:48;;;;;;;12.40;8.60;;;;;;;12.83;84.87;98652.48;435407;1254;107554;-43
2023/06/15 00:51:57;;;;;;;10.80;8.90;;;;;;;12.91;85.33;98645.69;435344;1251;97896;-43
2023/06/15 01:02:04;;;;;;;14.10;11.00;;;;;;;13.03;85.42;98636.47;435378;1251;109736;-42
2023/06/15 01:12:14;;;;;;;11.30;10.10;;;;;;;13.07;85.45;98636.73;436250;1250;107729;-41
2023/06/15 01:22:34;;;;;;;17.50;13.30;;;;;;;12.99;85.26;98632.54;435562;1250;118427;-41
2023/06/15 01:32:42;;;;;;;20.90;11.10;;;;;;;12.95;85.46;98627.21;435376;1253;108694;-41
2023/06/15 01:42:51;;;;;;;13.70;10.10;;;;;;;12.96;85.53;98624.31;435503;1253;97906;-42
2023/06/15 01:52:58;;;;;;;16.00;11.30;;;;;;;12.89;85.36;98626.03;435437;1253;111596;-42
2023/06/15 02:03:05;;;;;;;18.40;11.80;;;;;;;12.89;85.64;98625.66;435292;1253;108332;-41
2023/06/15 02:13:13;;;;;;;16.70;12.60;;;;;;;12.97;85.78;98629.52;435240;1251;98014;-42
2023/06/15 02:33:27;;;;;;;15.40;13.50;;;;;;;13.03;85.83;98627.13;435430;1253;97862;-42
2023/06/15 02:43:34;;;;;;;21.70;13.50;;;;;;;13.01;85.88;98624.11;435299;1253;109030;-42
2023/06/15 02:53:43;;;;;;;18.80;13.60;;;;;;;13.02;85.75;98627.05;435378;1253;107680;-41
2023/06/15 03:03:51;;;;;;;19.60;15.90;;;;;;;13.00;85.94;98620.33;435414;1251;97467;-41
2023/06/15 03:13:58;;;;;;;21.50;16.30;;;;;;;13.02;86.02;98623.92;435485;1253;107941;-41
2023/06/15 03:24:08;;;;;;;19.30;13.70;;;;;;;13.03;86.18;98638.44;435077;1249;453628;-42
2023/06/15 03:34:14;;;;;;;17.70;13.10;;;;;;;13.11;86.19;98640.71;435388;1263;109721;-42
2023/06/15 03:44:19;;;;;;;19.70;15.00;;;;;;;13.19;86.19;98645.30;435338;1253;108214;-41
2023/06/15 03:54:26;;;;;;;16.70;12.60;;;;;;;13.33;86.44;98654.20;435386;1254;97993;-42
2023/06/15 04:04:34;;;;;;;15.60;14.00;;;;;;;13.34;86.19;98656.29;435347;1253;108638;-42
2023/06/15 04:14:41;;;;;;;14.60;12.90;;;;;;;13.25;86.19;98653.52;435421;1253;97152;-43
2023/06/15 04:24:51;;;;;;;16.50;12.30;;;;;;;13.28;86.14;98657.70;435375;1251;109197;-42
2023/06/15 04:34:57;;;;;;;;;;;;;;;13.36;86.38;98656.57;435488;1253;108257;-42
2023/06/15 04:45:06;;;;;;;16.10;13.20;;;;;;;13.59;86.66;98656.20;435396;1251;97944;-42
2023/06/15 04:55:13;;;;;;;16.90;14.70;;;;;;;13.71;86.52;98655.27;435303;1253;107789;-42
2023/06/15 05:05:21;;;;;;;21.00;16.40;;;;;;;13.79;86.43;98655.27;435295;1250;97476;-42
2023/06/15 05:15:28;;;;;;;22.70;16.10;;;;;;;13.71;86.41;98658.56;435337;1253;110309;-41
2023/06/15 05:25:36;;;;;;;21.20;15.40;;;;;;;13.87;86.44;98659.60;435252;1253;108239;-42
2023/06/15 05:35:43;;;;;;;18.90;13.40;;;;;;;14.18;86.47;98668.42;435341;1253;97323;-43
2023/06/15 05:45:49;;;;;;;15.30;13.10;;;;;;;14.44;86.26;98677.45;435313;1253;108562;-41
2023/06/15 05:56:03;;;;;;;16.20;13.50;;;;;;;14.68;86.40;98688.56;435466;1251;97880;-42
2023/06/15 06:06:09;;;;;;;14.30;11.90;;;;;;;15.04;86.27;98686.58;435415;1253;108784;-43
2023/06/15 06:16:16;;;;;;;13.50;9.10;;;;;;;15.47;86.05;98686.55;435360;1254;108712;-41
2023/06/15 06:26:24;;;;;;;12.10;9.70;;;;;;;15.72;85.65;98690.24;435382;1251;97841;-42
2023/06/15 06:36:31;;;;;;;14.00;11.90;;;;;;;15.79;85.47;98691.75;435682;1253;109039;-41
2023/06/15 06:46:38;;;;;;;11.40;10.30;;;;;;;15.91;85.19;98698.90;435492;1251;97871;-42
2023/06/15 07:06:51;;;;;;;13.20;9.80;;;;;;;16.28;84.60;98695.88;435569;1251;108973;-42
2023/06/15 07:16:58;;;;;;;12.70;11.40;;;;;;;16.46;84.27;98704.48;435343;1254;97864;-42
2023/06/15 07:27:05;;;;;;;15.00;10.50;;;;;;;16.83;84.14;98704.52;435332;1253;107601;-42
2023/06/15 07:37:12;;;;;;;16.00;11.10;;;;;;;17.07;83.57;98712.73;435406;1251;97445;-42
2023/06/15 07:47:20;;;;;;;13.50;10.90;;;;;;;17.96;83.88;98706.82;435483;1254;111488;-41
2023/06/15 08:07:32;;;;;;;10.60;6.50;;;;;;;19.49;82.36;98691.44;435343;1253;97864;-41
2023/06/15 08:17:40;;;;;;;11.00;6.80;;;;;;;20.17;79.20;98689.25;435494;1254;110724;-40
2023/06/15 08:27:47;;;;;;;9.00;6.40;;;;;;;20.42;78.42;98695.19;435382;1251;107665;-40
2023/06/15 08:37:55;;;;;;;10.10;6.70;;;;;;;19.74;77.12;98699.80;435410;1253;97855;-42
2023/06/15 08:48:06;;;;;;;4.60;4.30;;;;;;;19.67;77.14;98697.10;435426;1263;109680;-42
2023/06/15 08:58:14;;;;;;;8.40;5.60;;;;;;;19.93;75.77;98691.89;435452;1253;108874;-42
2023/06/15 09:08:22;;;;;;;6.10;5.30;;;;;;;19.64;75.33;98697.52;435540;1263;97759;-41
2023/06/15 09:18:31;;;;;;;8.20;5.70;;;;;;;19.89;75.35;98694.47;435437;1251;109868;-41
2023/06/15 09:28:44;;;;;;;4.80;3.50;;;;;;;21.05;74.61;98699.10;435396;1250;108193;-41
2023/06/15 09:48:59;;;;;;;9.70;4.90;;;;;;;20.49;70.68;98699.48;435276;1251;106884;-45
2023/06/15 09:59:07;;;;;;;6.10;5.50;;;;;;;19.79;70.83;98704.48;435526;1250;98104;-42
2023/06/15 10:09:16;;;;;;;11.00;5.90;;;;;;;19.16;70.76;98701.09;435338;1253;110492;-41
2023/06/15 10:19:21;;;;;;;7.50;6.20;;;;;;;18.76;70.89;98700.23;435423;1253;109089;-42
2023/06/15 10:39:41;;;;;;;7.90;6.00;;;;;;;17.86;71.50;98698.49;435510;1252;110856;-42
2023/06/15 10:49:55;;;;;;;7.60;5.40;;;;;;;17.95;72.05;98705.02;435598;1249;107846;-43
2023/06/15 11:10:11;;;;;;;7.70;5.70;;;;;;;18.71;71.93;98687.73;435482;1251;109323;-43
2023/06/15 11:20:49;;;;;;;6.40;5.30;;;;;;;19.23;71.36;98684.86;435274;1253;108522;-45
2023/06/15 11:30:58;;;;;;;6.50;5.40;;;;;;;20.46;70.68;98685.86;435544;1251;97902;-41
2023/06/15 11:41:07;;;;;;;6.60;5.20;;;;;;;20.49;68.07;98676.22;435462;1254;109247;-41
2023/06/15 11:51:17;;;;;;;7.40;5.60;;;;;;;20.63;68.01;98669.85;435376;1251;97881;-42
2023/06/15 12:01:26;;;;;;;6.80;4.20;;;;;;;21.37;67.15;98664.00;435575;1251;110883;-42
2023/06/15 12:11:38;;;;;;;7.20;6.00;;;;;;;20.85;66.11;98660.85;435547;1249;108439;-41
2023/06/15 12:21:47;;;;;;;8.60;6.20;;;;;;;20.19;66.56;98665.98;435619;1253;97993;-42
2023/06/15 12:31:56;;;;;;;7.80;4.90;;;;;;;19.48;67.45;98666.48;435463;1254;109865;-42
2023/06/15 12:42:02;;;;;;;5.90;5.30;;;;;;;19.35;68.54;98654.83;435395;1251;108016;-42
2023/06/15 12:52:09;;;;;;;10.50;5.90;;;;;;;19.46;68.55;98651.00;435392;1251;118283;-43
2023/06/15 13:02:16;;;;;;;6.90;5.10;;;;;;;19.25;68.68;98650.44;435463;1250;108368;-43
2023/06/15 13:12:25;;;;;;;7.20;5.80;;;;;;;19.73;69.05;98634.84;435598;1251;96610;-41
2023/06/15 13:22:32;;;;;;;6.80;5.20;;;;;;;19.92;67.37;98620.92;435580;1253;109972;-41
2023/06/15 13:32:43;;;;;;;7.90;4.80;;;;;;;20.12;66.73;98617.23;435480;1253;107533;-41
2023/06/15 13:42:50;;;;;;;12.60;5.90;;;;;;;19.91;65.89;98622.52;435423;1251;97874;-43
2023/06/15 13:52:57;;;;;;;10.90;6.10;;;;;;;19.57;65.97;98614.56;435547;1253;108716;-41
2023/06/15 14:03:05;;;;;;;10.90;5.00;;;;;;;19.69;66.14;98609.01;435625;1250;96641;-41
2023/06/15 14:13:15;;;;;;;8.80;5.70;;;;;;;19.77;65.83;98607.00;435508;1253;111200;-42
2023/06/15 14:23:24;;;;;;;6.90;6.20;;;;;;;19.83;65.57;98603.48;435578;1250;106934;-41
2023/06/15 14:33:31;;;;;;;5.40;5.00;;;;;;;19.84;65.33;98602.27;435507;1253;97482;-43
2023/06/15 14:43:39;;;;;;;6.30;5.70;;;;;;;20.24;64.72;98597.92;435511;1249;109687;-40
2023/06/15 15:03:50;;;;;;;5.70;4.90;;;;;;;20.20;63.65;98587.41;435534;1251;97874;-41
2023/06/15 15:14:00;;;;;;;6.00;5.20;;;;;;;20.25;63.64;98569.92;435643;1250;108953;-42
2023/06/15 15:34:12;;;;;;;6.70;4.90;;;;;;;20.29;63.08;98559.08;435565;1251;111352;-42
2023/06/15 15:44:19;;;;;;;7.60;5.60;;;;;;;20.36;63.23;98552.52;435518;1253;108427;-41
2023/06/15 15:54:26;;;;;;;5.30;4.30;;;;;;;20.61;62.78;98551.45;435339;1249;96565;-42
2023/06/15 16:04:32;;;;;;;;;;;;;;;20.67;61.79;98551.56;435558;1253;110289;-41
2023/06/15 16:14:40;;;;;;;4.40;4.00;;;;;;;20.47;61.35;98550.34;435700;1250;108569;-41
2023/06/15 16:24:51;;;;;;;6.90;3.90;;;;;;;20.36;60.89;98553.85;435529;1250;97868;-42
2023/06/15 16:34:59;;;;;;;3.50;3.10;;;;;;;20.27;60.06;98555.88;435451;1253;110449;-42
2023/06/15 16:45:06;;;;;;;5.10;3.20;;;;;;;20.11;59.32;98559.20;435393;1253;109477;-43
2023/06/15 16:55:12;;;;;;;8.30;3.80;;;;;;;19.87;58.52;98559.84;435517;1250;97457;-42
2023/06/15 17:05:18;;;;;;;6.00;3.40;;;;;;;19.72;58.42;98560.61;435359;1253;110086;-43
2023/06/15 17:15:26;;;;;;;4.70;3.40;;;;;;;19.57;58.46;98555.92;435455;1250;108468;-41
2023/06/15 17:25:33;;;;;;;7.40;3.20;;;;;;;19.40;58.58;98565.11;435445;1250;98007;-42
2023/06/15 17:35:41;;;;;;;4.40;4.00;;;;;;;19.20;58.59;98555.66;435353;1254;108177;-42
2023/06/15 17:45:48;;;;;;;4.20;3.80;;;;;;;19.02;58.64;98559.21;435441;1253;97877;-42
2023/06/15 17:56:00;;;;;;;9.30;3.50;;;;;;;18.83;59.08;98564.02;435281;1253;109852;-41
2023/06/15 18:06:08;;;;;;;4.70;3.60;;;;;;;18.61;59.34;98569.42;435311;1251;111521;-42
2023/06/15 18:16:17;;;;;;;4.50;3.90;;;;;;;18.41;59.61;98570.21;435575;1254;97883;-42
2023/06/15 18:26:25;;;;;;;4.60;4.10;;;;;;;18.13;60.10;98569.21;435391;1249;109917;-43
2023/06/15 18:36:32;;;;;;;8.30;4.70;;;;;;;17.76;61.00;98571.40;435307;1254;106897;-43
2023/06/15 18:46:40;;;;;;;4.80;4.30;;;;;;;17.35;61.78;98573.05;435505;1251;97747;-42
2023/06/15 19:06:54;;;;;;;5.60;5.10;;;;;;;16.45;63.78;98597.10;435357;1249;107647;-42
2023/06/15 19:17:01;;;;;;;9.00;5.30;;;;;;;16.05;64.82;98606.70;435461;1251;118507;-42
2023/06/15 19:27:09;;;;;;;12.50;5.80;;;;;;;15.68;65.43;98615.85;435452;1253;107483;-42
2023/06/15 19:37:17;;;;;;;12.00;6.00;;;;;;;15.38;66.32;98619.84;435227;1254;97913;-42
2023/06/15 19:47:24;;;;;;;13.60;6.10;;;;;;;15.03;66.61;98619.36;435385;1256;111159;-43
2023/06/15 19:57:31;;;;;;;10.90;6.80;;;;;;;14.78;67.80;98623.37;435347;1253;108618;-42
2023/06/15 20:07:39;;;;;;;10.00;7.80;;;;;;;14.46;68.37;98620.09;435448;1253;97903;-43
2023/06/15 20:17:46;;;;;;;12.30;7.30;;;;;;;14.26;69.14;98616.10;435413;1256;110844;-42
2023/06/15 20:27:54;;;;;;;15.60;6.70;;;;;;;14.09;69.61;98610.64;435423;1253;108411;-42
2023/06/15 20:38:01;;;;;;;10.90;6.50;;;;;;;14.04;70.12;98613.77;435357;1250;97900;-42
2023/06/15 20:48:08;;;;;;;16.90;8.70;;;;;;;13.89;70.48;98614.27;435355;1253;108889;-41
2023/06/15 20:58:16;;;;;;;24.50;12.50;;;;;;;13.68;71.04;98616.02;435307;1251;98357;-42
2023/06/15 21:28:37;;;;;;;19.50;12.90;;;;;;;13.77;72.51;98594.13;435569;1253;96555;-41
2023/06/15 21:38:43;;;;;;;19.70;13.40;;;;;;;13.77;72.77;98590.23;435362;1253;107425;-42
2023/06/15 21:48:50;;;;;;;21.50;14.90;;;;;;;13.49;72.87;98583.52;435493;1249;97490;-43
2023/06/15 21:58:58;;;;;;;22.50;13.80;;;;;;;13.29;73.07;98576.02;435255;1266;110625;-43
2023/06/15 22:09:07;;;;;;;22.00;13.70;;;;;;;13.07;73.19;98572.05;435423;1253;107269;-43
2023/06/15 22:19:14;;;;;;;25.00;13.30;;;;;;;12.87;73.44;98571.96;435383;1251;97967;-41
2023/06/15 22:29:22;;;;;;;19.00;11.50;;;;;;;12.69;74.00;98569.64;435302;1255;109441;-43
2023/06/15 22:39:28;;;;;;;18.30;12.10;;;;;;;12.72;74.40;98567.04;435373;1254;97866;-42
2023/06/15 22:49:38;;;;;;;24.70;13.70;;;;;;;12.59;74.75;98565.17;435286;1250;111027;-43
2023/06/15 22:59:46;;;;;;;25.40;14.90;;;;;;;12.51;74.92;98555.76;435432;1249;107676;-43
2023/06/15 23:09:54;;;;;;;27.80;18.80;;;;;;;12.41;75.17;98553.66;435394;1253;97479;-43
2023/06/15 23:20:04;;;;;;;30.90;17.90;;;;;;;12.32;75.69;98551.20;435425;1256;108935;-41
2023/06/15 23:30:13;;;;;;;33.60;19.00;;;;;;;12.27;75.96;98537.38;435216;1253;107320;-43
2023/06/15 23:40:20;;;;;;;34.30;18.90;;;;;;;12.20;76.18;98544.29;435396;1253;97527;-42
2023/06/15 23:50:27;;;;;;;29.40;17.90;;;;;;;12.08;76.49;98542.23;435278;1254;108522;-42
